createdAt,value
2018-12-21T00:02:27.283Z,95815.52
2018-12-21T00:04:59.428Z,95821.20
2018-12-21T00:07:31.525Z,95828.89
2018-12-21T00:10:03.650Z,95831.73
2018-12-21T00:12:35.678Z,95831.41
2018-12-21T00:15:08.235Z,95823.28
2018-12-21T00:17:40.257Z,95834.33
2018-12-21T00:20:12.875Z,95836.61
2018-12-21T00:22:44.839Z,95838.55
2018-12-21T00:25:16.986Z,95840.00
2018-12-21T00:27:49.213Z,95837.38
2018-12-21T00:30:23.240Z,95840.33
2018-12-21T00:33:00.182Z,95837.54
2018-12-21T00:35:37.268Z,95838.33
2018-12-21T00:38:14.167Z,95842.00
2018-12-21T00:40:51.657Z,95846.05
2018-12-21T00:43:29.127Z,95844.05
2018-12-21T00:46:08.865Z,95846.19
2018-12-21T00:48:40.767Z,95844.01
2018-12-21T00:51:12.764Z,95835.52
2018-12-21T00:53:44.958Z,95847.75
2018-12-21T00:56:17.166Z,95836.61
2018-12-21T00:58:49.281Z,95840.47
2018-12-21T01:01:21.658Z,95834.06
2018-12-21T01:03:53.751Z,95846.13
2018-12-21T01:06:25.691Z,95838.41
2018-12-21T01:08:57.899Z,95841.80
2018-12-21T01:11:30.499Z,95844.39
2018-12-21T01:14:04.462Z,95841.83
2018-12-21T01:16:36.526Z,95846.17
2018-12-21T01:19:08.362Z,95845.67
2018-12-21T01:21:40.746Z,95844.38
2018-12-21T01:24:13.039Z,95848.93
2018-12-21T01:26:44.968Z,95843.62
2018-12-21T01:29:17.097Z,95851.09
2018-12-21T01:31:48.828Z,95842.33
2018-12-21T01:34:20.976Z,95835.06
2018-12-21T01:36:52.958Z,95838.41
2018-12-21T01:39:26.158Z,95841.55
2018-12-21T01:41:58.514Z,95846.02
2018-12-21T01:44:30.701Z,95847.87
2018-12-21T01:47:02.790Z,95847.62
2018-12-21T01:49:34.838Z,95846.95
2018-12-21T01:52:07.183Z,95848.45
2018-12-21T01:54:39.962Z,95850.42
2018-12-21T01:57:11.772Z,95848.52
2018-12-21T01:59:43.653Z,95848.78
2018-12-21T02:02:15.586Z,95847.35
2018-12-21T02:04:47.312Z,95845.03
2018-12-21T02:07:19.292Z,95843.62
2018-12-21T02:09:51.420Z,95836.25
2018-12-21T02:12:23.417Z,95836.53
2018-12-21T02:14:55.568Z,95835.31
2018-12-21T02:17:27.393Z,95835.16
2018-12-21T02:19:59.624Z,95832.52
2018-12-21T02:22:31.609Z,95829.42
2018-12-21T02:25:03.469Z,95823.11
2018-12-21T02:27:36.993Z,95828.16
2018-12-21T02:30:09.738Z,95829.64
2018-12-21T02:32:41.819Z,95827.27
2018-12-21T02:35:13.601Z,95829.73
2018-12-21T02:37:45.730Z,95828.31
2018-12-21T02:40:17.600Z,95829.73
2018-12-21T02:42:49.274Z,95830.80
2018-12-21T02:45:21.258Z,95824.80
2018-12-21T02:47:53.262Z,95824.99
2018-12-21T02:50:28.510Z,95829.22
2018-12-21T02:53:00.672Z,95828.65
2018-12-21T02:55:32.712Z,95835.72
2018-12-21T02:58:05.485Z,95831.81
2018-12-21T03:00:37.320Z,95826.19
2018-12-21T03:03:10.326Z,95828.60
2018-12-21T03:05:42.069Z,95834.89
2018-12-21T03:08:14.145Z,95835.00
2018-12-21T03:10:46.019Z,95834.66
2018-12-21T03:13:18.264Z,95828.08
2018-12-21T03:15:50.177Z,95830.95
2018-12-21T03:18:22.190Z,95832.28
2018-12-21T03:20:54.758Z,95829.69
2018-12-21T03:23:26.488Z,95828.52
2018-12-21T03:25:58.467Z,95826.31
2018-12-21T03:28:30.529Z,95824.07
2018-12-21T03:31:02.596Z,95821.94
2018-12-21T03:33:35.603Z,95825.22
2018-12-21T03:36:07.641Z,95832.13
2018-12-21T03:38:39.872Z,95824.34
2018-12-21T03:41:11.746Z,95828.20
2018-12-21T03:43:43.960Z,95834.15
2018-12-21T03:46:15.893Z,95830.91
2018-12-21T03:48:48.377Z,95836.68
2018-12-21T03:51:20.413Z,95837.22
2018-12-21T03:53:52.118Z,95845.37
2018-12-21T03:56:23.964Z,95846.68
2018-12-21T03:58:56.096Z,95844.20
2018-12-21T04:01:28.178Z,95843.29
2018-12-21T04:04:00.216Z,95831.50
2018-12-21T04:06:32.313Z,95831.92
2018-12-21T04:09:04.819Z,95829.84
2018-12-21T04:11:36.722Z,95832.80
2018-12-21T04:14:08.735Z,95831.08
2018-12-21T04:16:40.605Z,95836.33
2018-12-21T04:19:12.796Z,95831.22
2018-12-21T04:21:45.547Z,95831.58
2018-12-21T04:24:17.653Z,95828.40
2018-12-21T04:26:49.739Z,95830.76
2018-12-21T04:29:21.588Z,95832.66
2018-12-21T04:31:53.411Z,95833.22
2018-12-21T04:34:25.519Z,95827.39
2018-12-21T04:36:57.559Z,95833.39
2018-12-21T04:39:29.592Z,95837.20
2018-12-21T04:42:02.015Z,95831.37
2018-12-21T04:44:34.241Z,95839.86
2018-12-21T04:47:06.273Z,95836.20
2018-12-21T04:49:38.354Z,95828.20
2018-12-21T04:52:10.495Z,95832.39
2018-12-21T04:54:42.325Z,95841.99
2018-12-21T04:57:14.288Z,95840.41
2018-12-21T04:59:46.369Z,95834.58
2018-12-21T05:02:18.519Z,95839.87
2018-12-21T05:04:50.536Z,95852.91
2018-12-21T05:07:22.794Z,95857.87
2018-12-21T05:09:54.716Z,95853.16
2018-12-21T05:12:26.877Z,95846.22
2018-12-21T05:14:59.645Z,95845.36
2018-12-21T05:17:32.040Z,95849.82
2018-12-21T05:20:04.715Z,95856.19
2018-12-21T05:22:37.203Z,95857.24
2018-12-21T05:25:09.463Z,95853.44
2018-12-21T05:27:41.792Z,95854.30
2018-12-21T05:30:14.127Z,95855.41
2018-12-21T05:32:46.925Z,95860.69
2018-12-21T05:35:19.481Z,95865.84
2018-12-21T05:37:51.772Z,95854.72
2018-12-21T05:40:23.801Z,95860.55
2018-12-21T05:42:56.819Z,95868.53
2018-12-21T05:45:29.385Z,95871.77
2018-12-21T05:48:01.974Z,95876.99
2018-12-21T05:50:34.604Z,95876.26
2018-12-21T05:53:07.024Z,95877.19
2018-12-21T05:55:39.137Z,95872.88
2018-12-21T05:58:11.656Z,95873.22
2018-12-21T06:00:44.764Z,95864.69
2018-12-21T06:03:16.873Z,95854.23
2018-12-21T06:05:49.512Z,95859.07
2018-12-21T06:08:22.036Z,95857.32
2018-12-21T06:10:54.424Z,95867.73
2018-12-21T06:13:27.232Z,95866.36
2018-12-21T06:15:59.806Z,95864.43
2018-12-21T06:18:32.714Z,95866.36
2018-12-21T06:21:05.199Z,95867.70
2018-12-21T06:23:38.738Z,95867.53
2018-12-21T06:26:10.791Z,95858.92
2018-12-21T06:28:43.892Z,95858.12
2018-12-21T06:31:16.608Z,95858.53
2018-12-21T06:33:49.222Z,95852.98
2018-12-21T06:36:21.223Z,95853.25
2018-12-21T06:38:54.157Z,95862.60
2018-12-21T06:41:26.961Z,95847.92
2018-12-21T06:43:59.433Z,95845.42
2018-12-21T06:46:31.417Z,95836.63
2018-12-21T06:49:03.481Z,95839.23
2018-12-21T06:51:35.896Z,95851.06
2018-12-21T06:54:08.018Z,95849.48
2018-12-21T06:56:40.629Z,95854.16
2018-12-21T06:59:13.897Z,95861.77
2018-12-21T07:01:46.461Z,95851.54
2018-12-21T07:04:18.984Z,95862.19
2018-12-21T07:06:51.079Z,95871.25
2018-12-21T07:09:23.832Z,95879.56
2018-12-21T07:11:55.805Z,95879.72
2018-12-21T07:14:28.077Z,95887.66
2018-12-21T07:17:00.172Z,95887.05
2018-12-21T07:19:32.478Z,95887.67
2018-12-21T07:22:04.483Z,95885.02
2018-12-21T07:24:37.637Z,95892.52
2018-12-21T07:27:09.677Z,95902.95
2018-12-21T07:29:42.216Z,95900.72
2018-12-21T07:32:14.390Z,95882.50
2018-12-21T07:34:47.168Z,95887.84
2018-12-21T07:37:20.330Z,95891.38
2018-12-21T07:39:52.826Z,95887.56
2018-12-21T07:42:25.210Z,95897.02
2018-12-21T07:44:57.614Z,95898.28
2018-12-21T07:47:29.757Z,95886.05
2018-12-21T07:50:03.376Z,95897.23
2018-12-21T07:52:35.415Z,95892.17
2018-12-21T07:55:10.052Z,95904.72
2018-12-21T07:57:42.164Z,95903.46
2018-12-21T08:00:15.365Z,95910.06
2018-12-21T08:02:47.574Z,95912.73
2018-12-21T08:05:19.634Z,95918.06
2018-12-21T08:07:51.811Z,95903.27
2018-12-21T08:10:24.371Z,95889.09
2018-12-21T08:12:56.271Z,95897.22
2018-12-21T08:15:28.487Z,95909.15
2018-12-21T08:18:00.753Z,95909.31
2018-12-21T08:20:33.721Z,95919.80
2018-12-21T08:23:06.106Z,95905.94
2018-12-21T08:25:38.424Z,95911.48
2018-12-21T08:28:10.883Z,95902.37
2018-12-21T08:30:43.435Z,95911.80
2018-12-21T08:33:16.014Z,95922.70
2018-12-21T08:35:48.771Z,95919.59
2018-12-21T08:38:21.229Z,95908.20
2018-12-21T08:40:53.561Z,95899.30
2018-12-21T08:43:25.741Z,95893.83
2018-12-21T08:45:58.414Z,95904.28
2018-12-21T08:48:31.206Z,95899.56
2018-12-21T08:51:03.693Z,95900.32
2018-12-21T08:53:36.875Z,95896.05
2018-12-21T08:56:09.633Z,95890.17
2018-12-21T08:58:42.116Z,95888.66
2018-12-21T09:01:13.836Z,95885.39
2018-12-21T09:03:46.198Z,95886.94
2018-12-21T09:06:18.878Z,95893.23
2018-12-21T09:08:51.363Z,95890.09
2018-12-21T09:11:24.212Z,95883.79
2018-12-21T09:13:56.673Z,95876.22
2018-12-21T09:16:29.241Z,95868.20
2018-12-21T09:19:01.575Z,95871.82
2018-12-21T09:21:34.028Z,95882.78
2018-12-21T09:24:06.515Z,95877.35
2018-12-21T09:26:38.611Z,95860.81
2018-12-21T09:29:11.348Z,95853.53
2018-12-21T09:31:43.782Z,95842.98
2018-12-21T09:34:16.419Z,95831.84
2018-12-21T09:36:48.612Z,95830.30
2018-12-21T09:39:21.086Z,95825.95
2018-12-21T09:41:54.218Z,95824.64
2018-12-21T09:44:27.242Z,95814.13
2018-12-21T09:46:59.310Z,95820.45
2018-12-21T09:49:31.835Z,95824.45
2018-12-21T09:52:04.367Z,95813.73
2018-12-21T09:54:37.255Z,95811.59
2018-12-21T09:57:09.792Z,95810.44
2018-12-21T09:59:42.884Z,95806.97
2018-12-21T10:02:14.962Z,95814.50
2018-12-21T10:04:47.034Z,95810.85
2018-12-21T10:07:27.371Z,95808.18
2018-12-21T10:09:53.447Z,95809.05
2018-12-21T10:12:25.921Z,95815.83
2018-12-21T10:14:58.218Z,95808.43
2018-12-21T10:17:30.322Z,95804.21
2018-12-21T10:20:02.524Z,95800.82
2018-12-21T10:22:34.547Z,95801.95
2018-12-21T10:25:07.458Z,95788.55
2018-12-21T10:27:39.476Z,95786.41
2018-12-21T10:30:12.632Z,95788.11
2018-12-21T10:32:44.956Z,95788.70
2018-12-21T10:35:17.426Z,95788.77
2018-12-21T10:37:49.618Z,95779.98
2018-12-21T10:40:21.839Z,95787.08
2018-12-21T10:42:54.053Z,95793.30
2018-12-21T10:45:26.287Z,95789.16
2018-12-21T10:48:00.116Z,95776.31
2018-12-21T10:50:32.483Z,95777.55
2018-12-21T10:53:04.459Z,95762.09
2018-12-21T10:55:36.716Z,95761.26
2018-12-21T10:58:09.007Z,95772.52
2018-12-21T11:00:41.159Z,95765.53
2018-12-21T11:03:13.917Z,95765.48
2018-12-21T11:05:46.114Z,95767.28
2018-12-21T11:08:17.947Z,95761.16
2018-12-21T11:10:50.179Z,95753.67
2018-12-21T11:13:22.446Z,95764.18
2018-12-21T11:15:54.467Z,95758.45
2018-12-21T11:18:26.729Z,95754.10
2018-12-21T11:20:58.884Z,95742.16
2018-12-21T11:23:31.159Z,95749.57
2018-12-21T11:26:05.309Z,95754.11
2018-12-21T11:28:37.518Z,95748.31
2018-12-21T11:31:09.683Z,95742.84
2018-12-21T11:33:42.109Z,95735.25
2018-12-21T11:36:14.326Z,95733.11
2018-12-21T11:38:46.985Z,95728.11
2018-12-21T11:41:19.568Z,95719.41
2018-12-21T11:43:52.006Z,95718.90
2018-12-21T11:46:24.474Z,95708.73
2018-12-21T11:48:57.222Z,95718.58
2018-12-21T11:51:31.307Z,95721.32
2018-12-21T11:54:03.617Z,95716.78
2018-12-21T11:56:36.630Z,95718.88
2018-12-21T11:59:09.283Z,95723.09
2018-12-21T12:01:41.450Z,95728.45
2018-12-21T12:04:13.876Z,95732.53
2018-12-21T12:06:46.034Z,95733.31
2018-12-21T12:09:18.560Z,95733.68
2018-12-21T12:11:51.456Z,95725.25
2018-12-21T12:14:24.015Z,95712.50
2018-12-21T12:16:56.276Z,95716.56
2018-12-21T12:19:28.902Z,95713.16
2018-12-21T12:22:01.394Z,95702.34
2018-12-21T12:24:33.913Z,95702.19
2018-12-21T12:27:06.336Z,95705.41
2018-12-21T12:29:38.966Z,95704.95
2018-12-21T12:32:11.031Z,95686.67
2018-12-21T12:34:43.114Z,95683.13
2018-12-21T12:37:15.326Z,95683.60
2018-12-21T12:39:47.798Z,95682.16
2018-12-21T12:42:19.887Z,95682.66
2018-12-21T12:44:52.378Z,95684.77
2018-12-21T12:47:24.663Z,95687.16
2018-12-21T12:49:56.915Z,95698.16
2018-12-21T12:52:29.131Z,95701.86
2018-12-21T12:57:36.120Z,95685.08
2018-12-21T13:00:11.608Z,95690.09
2018-12-21T13:02:44.050Z,95709.14
2018-12-21T13:05:16.293Z,95705.89
2018-12-21T13:07:48.690Z,95708.31
2018-12-21T13:10:20.725Z,95712.02
2018-12-21T13:12:52.752Z,95708.63
2018-12-21T13:15:24.989Z,95708.63
2018-12-21T13:17:57.443Z,95719.59
2018-12-21T13:20:29.640Z,95713.30
2018-12-21T13:23:01.983Z,95710.51
2018-12-21T13:25:34.123Z,95701.27
2018-12-21T13:28:06.462Z,95698.65
2018-12-21T13:30:38.989Z,95695.58
2018-12-21T13:33:10.943Z,95703.42
2018-12-21T13:35:44.227Z,95701.29
2018-12-21T13:38:17.088Z,95701.08
2018-12-21T13:40:49.276Z,95688.42
2018-12-21T13:43:21.605Z,95689.65
2018-12-21T13:45:54.094Z,95680.14
2018-12-21T13:48:26.557Z,95688.55
2018-12-21T13:50:58.513Z,95678.47
2018-12-21T13:53:30.609Z,95674.63
2018-12-21T13:56:02.988Z,95677.06
2018-12-21T13:58:35.434Z,95680.95
2018-12-21T14:01:08.030Z,95681.79
2018-12-21T14:03:40.415Z,95672.91
2018-12-21T14:06:12.798Z,95670.81
2018-12-21T14:08:45.119Z,95671.93
2018-12-21T14:11:17.628Z,95686.63
2018-12-21T14:13:50.170Z,95691.79
2018-12-21T14:16:22.160Z,95695.66
2018-12-21T14:18:54.350Z,95695.50
2018-12-21T14:21:26.774Z,95694.69
2018-12-21T14:23:59.020Z,95702.42
2018-12-21T14:26:31.357Z,95700.80
2018-12-21T14:29:03.604Z,95708.06
2018-12-21T14:31:35.757Z,95709.48
2018-12-21T14:34:08.136Z,95719.11
2018-12-21T14:36:40.713Z,95727.15
2018-12-21T14:39:12.899Z,95731.00
2018-12-21T14:41:45.374Z,95726.45
2018-12-21T14:44:18.141Z,95730.75
2018-12-21T14:46:50.630Z,95717.72
2018-12-21T14:49:22.611Z,95716.45
2018-12-21T14:51:54.805Z,95714.99
2018-12-21T14:54:27.652Z,95713.83
2018-12-21T14:56:59.883Z,95719.67
2018-12-21T14:59:33.178Z,95722.26
2018-12-21T15:02:08.645Z,95724.67
2018-12-21T15:04:42.216Z,95724.51
2018-12-21T15:07:14.776Z,95727.05
2018-12-21T15:09:47.228Z,95726.98
2018-12-21T15:12:19.274Z,95719.41
2018-12-21T15:14:52.185Z,95707.46
2018-12-21T15:17:24.371Z,95706.78
2018-12-21T15:19:56.856Z,95712.56
2018-12-21T15:22:29.185Z,95720.89
2018-12-21T15:25:01.438Z,95721.68
2018-12-21T15:27:34.924Z,95717.37
2018-12-21T15:30:10.890Z,95715.08
2018-12-21T15:32:43.081Z,95716.51
2018-12-21T15:35:15.518Z,95713.99
2018-12-21T15:37:48.257Z,95713.29
2018-12-21T15:40:20.590Z,95715.98
2018-12-21T15:42:53.262Z,95716.64
2018-12-21T15:45:25.891Z,95710.34
2018-12-21T15:47:58.341Z,95712.36
2018-12-21T15:50:32.871Z,95713.42
2018-12-21T15:53:05.155Z,95717.62
2018-12-21T15:55:37.374Z,95714.30
2018-12-21T15:58:09.997Z,95715.16
2018-12-21T16:00:44.163Z,95723.27
2018-12-21T16:03:16.405Z,95719.93
2018-12-21T16:05:49.100Z,95722.78
2018-12-21T16:08:21.568Z,95717.86
2018-12-21T16:10:53.812Z,95718.64
2018-12-21T16:13:27.284Z,95726.89
2018-12-21T16:15:59.648Z,95733.96
2018-12-21T16:18:32.013Z,95733.01
2018-12-21T16:21:04.938Z,95745.07
2018-12-21T16:23:38.554Z,95741.09
2018-12-21T16:26:11.162Z,95738.56
2018-12-21T16:28:43.883Z,95739.02
2018-12-21T16:31:16.310Z,95744.72
2018-12-21T16:33:49.429Z,95737.93
2018-12-21T16:36:21.776Z,95742.42
2018-12-21T16:38:54.670Z,95737.83
2018-12-21T16:41:27.072Z,95746.98
2018-12-21T16:43:59.665Z,95739.53
2018-12-21T16:46:32.670Z,95740.21
2018-12-21T16:49:05.303Z,95736.69
2018-12-21T16:51:37.905Z,95740.80
2018-12-21T16:54:10.334Z,95735.64
2018-12-21T16:56:42.720Z,95724.22
2018-12-21T16:59:14.972Z,95712.06
2018-12-21T17:01:47.907Z,95719.20
2018-12-21T17:04:21.065Z,95710.26
2018-12-21T17:06:53.484Z,95717.98
2018-12-21T17:09:25.593Z,95718.70
2018-12-21T17:11:58.523Z,95722.86
2018-12-21T17:14:30.603Z,95721.17
2018-12-21T17:17:04.972Z,95727.19
2018-12-21T17:19:37.747Z,95727.11
2018-12-21T17:22:10.467Z,95727.23
2018-12-21T17:24:42.912Z,95726.19
2018-12-21T17:27:15.574Z,95718.73
2018-12-21T17:29:47.242Z,95716.21
2018-12-21T17:32:19.781Z,95712.28
2018-12-21T17:34:52.475Z,95717.03
2018-12-21T17:37:25.008Z,95717.76
2018-12-21T17:39:57.286Z,95715.77
2018-12-21T17:42:29.856Z,95720.75
2018-12-21T17:45:01.807Z,95723.42
2018-12-21T17:47:35.216Z,95720.22
2018-12-21T17:50:09.936Z,95721.73
2018-12-21T17:52:42.261Z,95716.72
2018-12-21T17:55:15.318Z,95718.11
2018-12-21T17:57:48.136Z,95722.72
2018-12-21T18:00:22.481Z,95722.81
2018-12-21T18:02:58.558Z,95728.92
2018-12-21T18:05:31.842Z,95726.70
2018-12-21T18:08:04.644Z,95726.66
2018-12-21T18:10:37.366Z,95726.24
2018-12-21T18:13:10.224Z,95723.39
2018-12-21T18:15:42.605Z,95720.71
2018-12-21T18:18:24.909Z,95714.27
2018-12-21T18:20:50.706Z,95712.41
2018-12-21T18:23:23.703Z,95711.25
2018-12-21T18:25:57.086Z,95719.55
2018-12-21T18:28:30.547Z,95715.25
2018-12-21T18:31:12.394Z,95715.20
2018-12-21T18:33:46.330Z,95711.47
2018-12-21T18:36:19.367Z,95714.16
2018-12-21T18:38:51.996Z,95710.63
2018-12-21T18:41:24.427Z,95704.96
2018-12-21T18:43:56.827Z,95689.23
2018-12-21T18:46:29.373Z,95695.55
2018-12-21T18:49:01.807Z,95693.20
2018-12-21T18:51:33.894Z,95687.13
2018-12-21T18:54:06.404Z,95684.98
2018-12-21T18:56:48.413Z,95684.75
2018-12-21T18:59:21.323Z,95688.63
2018-12-21T19:01:53.941Z,95686.70
2018-12-21T19:04:27.067Z,95677.47
2018-12-21T19:07:00.059Z,95675.84
2018-12-21T19:09:32.714Z,95669.72
2018-12-21T19:12:06.562Z,95673.99
2018-12-21T19:14:40.249Z,95672.09
2018-12-21T19:17:13.697Z,95666.23
2018-12-21T19:19:46.529Z,95667.74
2018-12-21T19:22:19.075Z,95672.39
2018-12-21T19:24:52.541Z,95667.14
2018-12-21T19:27:26.530Z,95667.96
2018-12-21T19:29:59.666Z,95662.45
2018-12-21T19:32:32.275Z,95663.42
2018-12-21T19:35:05.393Z,95668.64
2018-12-21T19:37:37.934Z,95660.03
2018-12-21T19:40:13.408Z,95662.72
2018-12-21T19:42:45.703Z,95662.09
2018-12-21T19:45:18.052Z,95655.87
2018-12-21T19:47:50.770Z,95655.69
2018-12-21T19:50:23.996Z,95653.23
2018-12-21T19:52:56.371Z,95652.83
2018-12-21T19:55:41.371Z,95640.09
2018-12-21T19:58:14.990Z,95640.38
2018-12-21T20:00:47.734Z,95636.97
2018-12-21T20:03:20.328Z,95643.02
2018-12-21T20:05:53.030Z,95639.52
2018-12-21T20:08:27.282Z,95633.52
2018-12-21T20:11:00.442Z,95633.77
2018-12-21T20:13:34.971Z,95631.64
2018-12-21T20:16:07.484Z,95632.39
2018-12-21T20:18:39.686Z,95627.91
2018-12-21T20:21:12.558Z,95620.31
2018-12-21T20:23:44.958Z,95624.98
2018-12-21T20:26:17.329Z,95627.14
2018-12-21T20:28:50.768Z,95626.62
2018-12-21T20:31:23.119Z,95622.89
2018-12-21T20:33:55.277Z,95626.33
2018-12-21T20:36:27.944Z,95627.81
2018-12-21T20:39:00.118Z,95623.02
2018-12-21T20:41:32.442Z,95617.60
2018-12-21T20:44:04.900Z,95618.14
2018-12-21T20:46:37.188Z,95613.84
2018-12-21T20:49:09.220Z,95619.37
2018-12-21T20:51:41.261Z,95615.09
2018-12-21T20:54:13.523Z,95618.56
2018-12-21T20:56:50.704Z,95619.69
2018-12-21T20:59:25.821Z,95617.59
2018-12-21T21:01:58.787Z,95610.30
2018-12-21T21:04:31.411Z,95609.53
2018-12-21T21:07:04.041Z,95602.47
2018-12-21T21:09:36.274Z,95607.45
2018-12-21T21:12:08.617Z,95605.78
2018-12-21T21:14:41.229Z,95599.44
2018-12-21T21:17:14.052Z,95598.23
2018-12-21T21:19:46.389Z,95601.31
2018-12-21T21:22:18.962Z,95596.94
2018-12-21T21:24:51.078Z,95596.73
2018-12-21T21:27:30.228Z,95590.53
2018-12-21T21:29:58.791Z,95588.20
2018-12-21T21:32:31.567Z,95588.31
2018-12-21T21:35:04.078Z,95583.75
2018-12-21T21:37:36.181Z,95587.48
2018-12-21T21:40:12.889Z,95578.63
2018-12-21T21:42:44.852Z,95575.83
2018-12-21T21:45:17.364Z,95576.62
2018-12-21T21:47:50.145Z,95576.99
2018-12-21T21:50:22.437Z,95574.45
2018-12-21T21:52:54.644Z,95576.16
2018-12-21T21:55:26.529Z,95573.13
2018-12-21T21:57:58.468Z,95579.14
2018-12-21T22:00:32.624Z,95575.66
2018-12-21T22:03:04.524Z,95570.92
2018-12-21T22:05:36.826Z,95572.05
2018-12-21T22:08:09.537Z,95567.67
2018-12-21T22:10:41.346Z,95570.98
2018-12-21T22:13:13.641Z,95570.19
2018-12-21T22:15:45.800Z,95573.45
2018-12-21T22:18:17.754Z,95566.09
2018-12-21T22:20:49.962Z,95575.59
2018-12-21T22:23:22.970Z,95576.97
2018-12-21T22:25:55.350Z,95580.70
2018-12-21T22:28:27.498Z,95566.25
2018-12-21T22:30:59.716Z,95553.27
2018-12-21T22:33:31.695Z,95546.69
2018-12-21T22:36:03.646Z,95546.38
2018-12-21T22:38:35.629Z,95552.22
2018-12-21T22:41:07.884Z,95556.94
2018-12-21T22:43:40.774Z,95555.31
2018-12-21T22:46:12.838Z,95559.32
2018-12-21T22:48:44.858Z,95555.77
2018-12-21T22:51:17.340Z,95549.91
2018-12-21T22:53:49.269Z,95549.19
2018-12-21T22:56:21.419Z,95547.23
2018-12-21T22:58:53.545Z,95542.36
2018-12-21T23:01:25.734Z,95545.03
2018-12-21T23:03:58.007Z,95536.88
2018-12-21T23:06:30.040Z,95532.94
2018-12-21T23:09:01.924Z,95527.47
2018-12-21T23:11:33.662Z,95521.14
2018-12-21T23:14:05.505Z,95520.41
2018-12-21T23:16:38.539Z,95515.46
2018-12-21T23:19:10.904Z,95509.00
2018-12-21T23:21:43.409Z,95504.80
2018-12-21T23:24:17.496Z,95495.09
2018-12-21T23:26:50.540Z,95484.70
2018-12-21T23:29:22.539Z,95491.52
2018-12-21T23:31:54.438Z,95501.86
2018-12-21T23:34:26.471Z,95508.30
2018-12-21T23:36:58.608Z,95510.18
2018-12-21T23:39:30.865Z,95501.94
2018-12-21T23:42:02.762Z,95501.88
2018-12-21T23:44:34.779Z,95499.52
2018-12-21T23:47:06.936Z,95514.90
2018-12-21T23:49:38.835Z,95513.39
2018-12-21T23:52:10.465Z,95510.54
2018-12-21T23:54:42.633Z,95505.05
2018-12-21T23:57:14.943Z,95508.42
2018-12-21T23:59:46.764Z,95527.66
